Time;durP1;ratioP1;P1;durP2;ratioP2;P2;SDS_P1;SDS_P2;PMS_P1;PMS_P2;Temp;Humidity;BMP_temperature;BMP_pressure;BME280_temperature;BME280_humidity;BME280_pressure;Samples;Min_cycle;Max_cycle;Signal;HPM_P1;HPM_P2
2021/12/19 00:04:29;;;;;;;;;;;-1.90;86.40;;;;;;6102622;23;19958;-80
2021/12/19 00:09:42;;;;;;;;;;;-1.90;86.10;;;;;;6097753;23;19921;-80
2021/12/19 00:12:09;;;;;;;;;;;-1.90;87.80;;;;;;6077058;23;19917;-81
2021/12/19 00:14:36;;;;;;;;;;;-1.90;87.70;;;;;;6109204;23;19921;-80
2021/12/19 00:17:03;;;;;;;;;;;-1.90;87.00;;;;;;6055403;23;19918;-79
2021/12/19 00:19:30;;;;;;;;;;;-1.90;86.50;;;;;;6072986;23;20420;-81
2021/12/19 00:21:57;;;;;;;;;;;-2.00;87.90;;;;;;6080524;23;20338;-80
2021/12/19 00:24:27;;;;;;;;;;;-2.00;87.00;;;;;;6053949;23;19917;-80
2021/12/19 00:26:54;;;;;;;;;;;-2.00;86.40;;;;;;6077793;23;19913;-80
2021/12/19 00:29:21;;;;;;;;;;;-2.10;86.60;;;;;;6076536;23;19920;-80
2021/12/19 00:31:48;;;;;;;;;;;-2.10;87.20;;;;;;6106334;23;19928;-79
2021/12/19 00:34:15;;;;;;;;;;;-2.10;87.60;;;;;;6071911;23;19923;-81
2021/12/19 00:36:43;;;;;;;;;;;-2.20;88.00;;;;;;6077826;23;19924;-79
2021/12/19 00:39:10;;;;;;;;;;;-2.20;86.70;;;;;;6097824;23;20402;-81
2021/12/19 00:41:37;;;;;;;;;;;-2.20;86.80;;;;;;6077721;23;20295;-79
2021/12/19 00:44:09;;;;;;;;;;;-2.20;86.60;;;;;;6075535;23;19932;-80
2021/12/19 00:46:51;;;;;;;;;;;-2.30;86.50;;;;;;6072982;23;19917;-80
2021/12/19 00:49:20;;;;;;;;;;;-2.30;86.70;;;;;;6075549;23;19905;-79
2021/12/19 00:51:47;;;;;;;;;;;-2.30;86.70;;;;;;6079487;23;20114;-81
2021/12/19 00:54:14;;;;;;;;;;;-2.30;87.00;;;;;;6072873;23;19925;-81
2021/12/19 00:56:44;;;;;;;;;;;-2.30;87.10;;;;;;6078391;23;19925;-80
2021/12/19 00:59:11;;;;;;;;;;;-2.30;86.90;;;;;;6081364;23;20000;-81
2021/12/19 01:01:42;;;;;;;;;;;-2.30;87.30;;;;;;6084154;23;19917;-79
2021/12/19 01:04:11;;;;;;;;;;;-2.30;88.40;;;;;;6079641;23;19972;-81
2021/12/19 01:06:38;;;;;;;;;;;-2.20;88.80;;;;;;6075868;23;20331;-79
2021/12/19 01:09:06;;;;;;;;;;;-2.20;88.10;;;;;;6078352;23;19917;-81
2021/12/19 01:11:34;;;;;;;;;;;-2.30;89.80;;;;;;6080258;23;19918;-79
2021/12/19 01:14:01;;;;;;;;;;;-2.30;89.50;;;;;;6086172;23;19917;-78
2021/12/19 01:16:28;;;;;;;;;;;-2.30;89.30;;;;;;6080535;23;19945;-79
2021/12/19 01:18:55;;;;;;;;;;;-2.30;89.70;;;;;;6083714;23;19917;-80
2021/12/19 01:21:22;;;;;;;;;;;-2.40;88.70;;;;;;6088476;23;19917;-80
2021/12/19 01:23:49;;;;;;;;;;;-2.40;90.00;;;;;;6080103;23;19921;-79
2021/12/19 01:26:16;;;;;;;;;;;-2.40;90.50;;;;;;6103045;23;19968;-80
2021/12/19 01:28:43;;;;;;;;;;;-2.40;90.40;;;;;;6075839;23;19917;-81
2021/12/19 01:31:10;;;;;;;;;;;-2.40;89.80;;;;;;6105423;23;19917;-79
2021/12/19 01:33:37;;;;;;;;;;;-2.40;90.10;;;;;;6082319;23;20262;-79
2021/12/19 01:36:06;;;;;;;;;;;-2.40;89.00;;;;;;6074128;23;19921;-81
2021/12/19 01:38:33;;;;;;;;;;;-2.40;88.40;;;;;;6100696;23;19967;-80
2021/12/19 01:41:00;;;;;;;;;;;-2.40;88.10;;;;;;6128796;23;19967;-81
2021/12/19 01:43:27;;;;;;;;;;;-2.50;89.80;;;;;;6110111;23;20415;-79
2021/12/19 01:45:54;;;;;;;;;;;-2.40;89.70;;;;;;6107889;23;19983;-80
2021/12/19 01:48:21;;;;;;;;;;;-2.40;90.60;;;;;;6114168;23;19924;-80
2021/12/19 01:50:48;;;;;;;;;;;-2.50;90.30;;;;;;6110851;23;19916;-79
2021/12/19 01:53:16;;;;;;;;;;;-2.50;90.00;;;;;;6137433;23;19948;-79
2021/12/19 01:55:44;;;;;;;;;;;-2.50;91.40;;;;;;6105604;23;19940;-78
2021/12/19 01:58:11;;;;;;;;;;;-2.60;91.20;;;;;;6103742;23;19917;-79
2021/12/19 02:00:40;;;;;;;;;;;-2.60;90.90;;;;;;6103840;23;19917;-80
2021/12/19 02:03:09;;;;;;;;;;;-2.60;90.70;;;;;;6104270;23;20389;-80
2021/12/19 02:05:36;;;;;;;;;;;-2.60;90.50;;;;;;6110828;23;19949;-78
2021/12/19 02:08:03;;;;;;;;;;;-2.60;90.50;;;;;;6106372;23;19917;-78
2021/12/19 02:10:32;;;;;;;;;;;-2.60;90.40;;;;;;6106856;23;19917;-78
2021/12/19 02:12:59;;;;;;;;;;;-2.60;90.40;;;;;;6103782;23;19927;-80
2021/12/19 02:15:27;;;;;;;;;;;-2.50;90.90;;;;;;6099540;23;19920;-80
2021/12/19 02:17:56;;;;;;;;;;;-2.50;90.40;;;;;;6131716;23;19917;-78
2021/12/19 02:20:23;;;;;;;;;;;-2.50;90.40;;;;;;6110386;23;19917;-79
2021/12/19 02:22:50;;;;;;;;;;;-2.50;90.30;;;;;;6105552;23;19924;-78
2021/12/19 02:25:17;;;;;;;;;;;-2.50;90.80;;;;;;6117078;23;19917;-79
2021/12/19 02:27:44;;;;;;;;;;;-2.50;90.40;;;;;;6135525;23;19928;-79
2021/12/19 02:30:11;;;;;;;;;;;-2.50;90.60;;;;;;6106503;23;20298;-78
2021/12/19 02:32:40;;;;;;;;;;;-2.50;90.50;;;;;;6110635;23;19940;-77
2021/12/19 02:35:11;;;;;;;;;;;-2.50;90.40;;;;;;6102251;23;19927;-80
2021/12/19 02:48:11;;;;;;;;;;;-2.50;89.90;;;;;;6106826;23;19925;-79
2021/12/19 02:50:44;;;;;;;;;;;-2.50;89.60;;;;;;6082685;23;19957;-79
2021/12/19 02:53:11;;;;;;;;;;;-2.50;90.50;;;;;;6072095;23;20442;-78
2021/12/19 02:55:39;;;;;;;;;;;-2.60;90.20;;;;;;6077942;23;19948;-78
2021/12/19 02:58:06;;;;;;;;;;;-2.60;90.00;;;;;;6101637;23;19980;-79
2021/12/19 03:00:33;;;;;;;;;;;-2.60;89.70;;;;;;6080418;23;20394;-78
2021/12/19 03:03:00;;;;;;;;;;;-2.70;89.30;;;;;;6104171;23;20365;-78
2021/12/19 03:05:30;;;;;;;;;;;-2.70;89.20;;;;;;6102061;23;19917;-79
2021/12/19 03:07:58;;;;;;;;;;;-2.70;89.40;;;;;;6071774;23;19917;-78
2021/12/19 03:18:11;;;;;;;;;;;-2.70;89.80;;;;;;6098042;23;19921;-80
2021/12/19 03:20:38;;;;;;;;;;;-2.80;90.30;;;;;;6074433;23;19921;-79
2021/12/19 03:23:06;;;;;;;;;;;-2.80;89.80;;;;;;6071119;23;19917;-80
2021/12/19 03:25:34;;;;;;;;;;;-2.80;89.20;;;;;;6077634;23;19918;-79
2021/12/19 03:28:02;;;;;;;;;;;-2.90;89.30;;;;;;6080363;23;19905;-80
2021/12/19 03:30:29;;;;;;;;;;;-2.90;89.10;;;;;;6077193;23;19964;-80
2021/12/19 03:32:57;;;;;;;;;;;-2.90;89.10;;;;;;6072567;23;19917;-79
2021/12/19 03:35:24;;;;;;;;;;;-2.90;89.50;;;;;;6073694;23;19921;-79
2021/12/19 03:37:52;;;;;;;;;;;-2.90;89.60;;;;;;6094316;23;19921;-80
2021/12/19 03:40:24;;;;;;;;;;;-2.90;89.70;;;;;;6102174;23;19916;-78
2021/12/19 03:42:52;;;;;;;;;;;-3.00;90.40;;;;;;6101158;23;20291;-80
2021/12/19 03:45:21;;;;;;;;;;;-3.10;90.20;;;;;;6101755;23;19992;-79
2021/12/19 03:47:48;;;;;;;;;;;-3.10;90.10;;;;;;6103068;23;19921;-79
2021/12/19 03:50:19;;;;;;;;;;;-3.10;89.70;;;;;;6111144;23;19920;-79
2021/12/19 03:52:46;;;;;;;;;;;-3.10;89.60;;;;;;6111580;23;19916;-78
2021/12/19 03:55:13;;;;;;;;;;;-3.10;89.60;;;;;;6111249;23;19920;-79
2021/12/19 03:57:40;;;;;;;;;;;-3.10;90.10;;;;;;6102383;23;20278;-79
2021/12/19 04:00:08;;;;;;;;;;;-3.10;90.20;;;;;;6101751;23;19917;-79
2021/12/19 04:02:35;;;;;;;;;;;-3.10;90.10;;;;;;6138182;23;19945;-79
2021/12/19 04:05:02;;;;;;;;;;;-3.10;90.10;;;;;;6100527;23;20331;-79
2021/12/19 04:07:29;;;;;;;;;;;-3.10;90.10;;;;;;6106533;23;19921;-80
2021/12/19 04:09:56;;;;;;;;;;;-3.00;90.20;;;;;;6111798;23;19925;-78
2021/12/19 04:12:26;;;;;;;;;;;-3.00;90.40;;;;;;6108064;23;19921;-79
2021/12/19 04:14:55;;;;;;;;;;;-3.00;90.40;;;;;;6114895;23;19923;-79
2021/12/19 04:17:22;;;;;;;;;;;-3.00;90.70;;;;;;6135518;23;19901;-78
2021/12/19 04:19:49;;;;;;;;;;;-3.00;90.50;;;;;;6105784;23;20326;-80
2021/12/19 04:22:16;;;;;;;;;;;-3.00;90.40;;;;;;6100749;23;19928;-79
2021/12/19 04:24:43;;;;;;;;;;;-3.00;90.50;;;;;;6105973;23;19948;-78
2021/12/19 04:27:09;;;;;;;;;;;-3.00;90.60;;;;;;6103121;23;19921;-79
2021/12/19 04:29:36;;;;;;;;;;;-3.00;90.50;;;;;;6112828;23;19920;-78
2021/12/19 04:32:03;;;;;;;;;;;-3.00;90.40;;;;;;6100484;23;20385;-80
2021/12/19 04:34:30;;;;;;;;;;;-3.10;90.40;;;;;;6100830;23;19948;-80
2021/12/19 04:37:04;;;;;;;;;;;-3.20;90.50;;;;;;6100096;23;19941;-80
2021/12/19 04:39:40;;;;;;;;;;;-3.20;90.30;;;;;;6101358;23;19972;-79
2021/12/19 04:43:02;;;;;;;;;;;-3.20;91.00;;;;;;6099626;23;20330;-79
2021/12/19 04:53:19;;;;;;;;;;;-3.30;90.70;;;;;;6125463;23;19917;-79
2021/12/19 04:58:44;;;;;;;;;;;-3.20;90.70;;;;;;6130851;23;19920;-78
2021/12/19 05:03:46;;;;;;;;;;;-3.20;90.40;;;;;;6136554;23;19920;-79
2021/12/19 05:14:52;;;;;;;;;;;-3.20;90.70;;;;;;6106581;23;19921;-79
2021/12/19 05:17:24;;;;;;;;;;;-3.20;90.50;;;;;;6101435;23;19921;-80
2021/12/19 05:20:16;;;;;;;;;;;-3.20;90.60;;;;;;6101642;23;19917;-79
2021/12/19 05:22:46;;;;;;;;;;;-3.20;90.50;;;;;;6128765;23;20471;-80
2021/12/19 05:25:17;;;;;;;;;;;-3.20;90.50;;;;;;6103853;23;19928;-78
2021/12/19 05:27:45;;;;;;;;;;;-3.30;90.40;;;;;;6126382;23;19924;-79
2021/12/19 05:30:13;;;;;;;;;;;-3.30;90.30;;;;;;6108143;23;19917;-79
2021/12/19 05:32:40;;;;;;;;;;;-3.30;90.40;;;;;;6103881;23;19924;-79
2021/12/19 05:35:10;;;;;;;;;;;-3.30;90.50;;;;;;6099821;23;19917;-81
2021/12/19 05:45:53;;;;;;;;;;;-3.30;90.20;;;;;;6135121;23;19984;-77
2021/12/19 05:48:20;;;;;;;;;;;-3.30;90.30;;;;;;6115019;23;19921;-79
2021/12/19 05:50:47;;;;;;;;;;;-3.40;90.20;;;;;;6108969;23;19917;-80
2021/12/19 05:53:14;;;;;;;;;;;-3.40;90.70;;;;;;6107858;23;19921;-79
2021/12/19 05:55:41;;;;;;;;;;;-3.50;90.60;;;;;;6109763;23;19916;-79
2021/12/19 05:58:08;;;;;;;;;;;-3.50;90.70;;;;;;6115852;23;19916;-77
2021/12/19 06:00:35;;;;;;;;;;;-3.50;90.70;;;;;;6111972;23;20405;-79
2021/12/19 06:03:02;;;;;;;;;;;-3.50;90.70;;;;;;6108624;23;19924;-79
2021/12/19 06:05:29;;;;;;;;;;;-3.50;90.60;;;;;;6112482;23;20003;-80
2021/12/19 06:07:56;;;;;;;;;;;-3.50;90.50;;;;;;6105585;23;20278;-79
2021/12/19 06:10:25;;;;;;;;;;;-3.60;90.50;;;;;;6137464;23;20354;-77
2021/12/19 06:12:52;;;;;;;;;;;-3.60;90.40;;;;;;6087297;23;19921;-81
2021/12/19 06:15:19;;;;;;;;;;;-3.60;90.30;;;;;;6105275;23;19931;-78
2021/12/19 06:17:45;;;;;;;;;;;-3.60;90.30;;;;;;6117148;23;19920;-80
2021/12/19 06:20:13;;;;;;;;;;;-3.60;90.10;;;;;;6113658;23;19923;-79
2021/12/19 06:22:40;;;;;;;;;;;-3.60;90.00;;;;;;6102767;23;19968;-80
2021/12/19 06:25:07;;;;;;;;;;;-3.60;90.10;;;;;;6118575;23;19948;-79
2021/12/19 06:27:34;;;;;;;;;;;-3.60;90.10;;;;;;6131369;23;20011;-79
2021/12/19 06:30:02;;;;;;;;;;;-3.60;90.30;;;;;;6143053;23;19917;-79
2021/12/19 06:32:29;;;;;;;;;;;-3.60;90.20;;;;;;6112378;23;19921;-78
2021/12/19 06:34:56;;;;;;;;;;;-3.60;90.40;;;;;;6133391;23;19917;-79
2021/12/19 06:37:24;;;;;;;;;;;-3.50;90.90;;;;;;6124551;23;20011;-80
2021/12/19 06:39:50;;;;;;;;;;;-3.50;91.10;;;;;;6074266;23;19968;-80
2021/12/19 06:42:17;;;;;;;;;;;-3.40;91.30;;;;;;6080223;23;19991;-77
2021/12/19 06:44:44;;;;;;;;;;;-3.40;91.00;;;;;;6079814;23;20676;-79
2021/12/19 06:47:11;;;;;;;;;;;-3.50;90.50;;;;;;6077798;23;19941;-79
2021/12/19 06:49:38;;;;;;;;;;;-3.50;90.30;;;;;;6074659;23;19945;-79
2021/12/19 06:52:05;;;;;;;;;;;-3.60;89.90;;;;;;6076673;23;19925;-80
2021/12/19 06:54:31;;;;;;;;;;;-3.60;90.20;;;;;;6101890;23;19917;-79
2021/12/19 06:56:58;;;;;;;;;;;-3.70;90.20;;;;;;6084651;23;20779;-77
2021/12/19 06:59:25;;;;;;;;;;;-3.70;90.30;;;;;;6083680;23;19945;-79
2021/12/19 07:01:52;;;;;;;;;;;-3.70;90.40;;;;;;6074935;23;19921;-79
2021/12/19 07:04:19;;;;;;;;;;;-3.70;90.30;;;;;;6080900;23;19945;-80
2021/12/19 07:06:46;;;;;;;;;;;-3.70;90.30;;;;;;6081739;23;19924;-80
2021/12/19 07:09:13;;;;;;;;;;;-3.70;90.20;;;;;;6085698;23;19921;-79
2021/12/19 07:11:42;;;;;;;;;;;-3.70;90.20;;;;;;6087715;23;19945;-80
2021/12/19 07:14:09;;;;;;;;;;;-3.70;91.00;;;;;;6079238;23;19901;-77
2021/12/19 07:16:36;;;;;;;;;;;-3.70;90.70;;;;;;6068588;23;19939;-77
2021/12/19 07:19:03;;;;;;;;;;;-3.70;91.30;;;;;;6080358;23;19921;-79
2021/12/19 07:21:29;;;;;;;;;;;-3.60;90.90;;;;;;6087925;23;19901;-78
2021/12/19 07:23:59;;;;;;;;;;;-3.60;90.60;;;;;;6084794;23;19968;-78
2021/12/19 07:26:26;;;;;;;;;;;-3.60;90.40;;;;;;6121714;23;19944;-79
2021/12/19 07:28:53;;;;;;;;;;;-3.60;90.30;;;;;;6082144;23;19917;-79
2021/12/19 07:31:21;;;;;;;;;;;-3.60;90.30;;;;;;6092056;23;19948;-80
2021/12/19 07:33:48;;;;;;;;;;;-3.60;90.40;;;;;;6081361;23;19941;-80
2021/12/19 07:36:17;;;;;;;;;;;-3.60;90.30;;;;;;6077571;23;19948;-80
2021/12/19 07:38:53;;;;;;;;;;;-3.60;90.40;;;;;;6114295;23;19963;-79
2021/12/19 07:41:20;;;;;;;;;;;-3.30;90.60;;;;;;6120075;23;19920;-78
2021/12/19 07:43:47;;;;;;;;;;;-2.60;90.70;;;;;;6116258;23;19909;-79
2021/12/19 07:46:14;;;;;;;;;;;-1.70;90.00;;;;;;6106895;23;19972;-79
2021/12/19 07:48:42;;;;;;;;;;;-0.90;87.10;;;;;;6110671;23;19917;-80
2021/12/19 07:51:09;;;;;;;;;;;-0.30;83.90;;;;;;6129700;23;20274;-79
2021/12/19 07:53:36;;;;;;;;;;;0.20;80.50;;;;;;6107260;23;19917;-78
2021/12/19 07:56:03;;;;;;;;;;;0.70;77.80;;;;;;6107260;23;19917;-81
2021/12/19 07:58:30;;;;;;;;;;;1.10;75.10;;;;;;6111556;23;19944;-80
2021/12/19 08:00:56;;;;;;;;;;;1.20;74.00;;;;;;6100403;23;20038;-80
2021/12/19 08:03:23;;;;;;;;;;;1.00;73.50;;;;;;6104993;23;19917;-80
2021/12/19 08:05:50;;;;;;;;;;;0.70;74.40;;;;;;6105472;23;20254;-81
2021/12/19 08:08:25;;;;;;;;;;;0.40;75.80;;;;;;6104849;23;19921;-78
2021/12/19 08:13:37;;;;;;;;;;;0.00;77.90;;;;;;6135798;23;19971;-80
2021/12/19 08:16:05;;;;;;;;;;;-0.10;78.90;;;;;;6104942;23;19920;-78
2021/12/19 08:18:31;;;;;;;;;;;-0.20;79.60;;;;;;6104643;23;20022;-77
2021/12/19 08:20:58;;;;;;;;;;;-0.30;81.40;;;;;;6104068;23;19917;-80
2021/12/19 08:23:27;;;;;;;;;;;-0.40;82.40;;;;;;6100942;23;19921;-80
2021/12/19 08:25:54;;;;;;;;;;;-0.30;83.40;;;;;;6102577;23;19917;-80
2021/12/19 08:28:21;;;;;;;;;;;-0.20;83.30;;;;;;6100722;23;19920;-77
2021/12/19 08:30:48;;;;;;;;;;;-0.10;84.80;;;;;;6102185;23;19921;-80
2021/12/19 08:33:14;;;;;;;;;;;0.00;84.80;;;;;;6107676;23;20023;-76
2021/12/19 08:35:42;;;;;;;;;;;0.20;84.20;;;;;;6103123;23;19917;-79
2021/12/19 08:38:09;;;;;;;;;;;0.20;84.60;;;;;;6104784;23;19931;-80
2021/12/19 08:40:37;;;;;;;;;;;0.40;84.30;;;;;;6101059;23;20240;-80
2021/12/19 08:43:05;;;;;;;;;;;0.50;84.20;;;;;;6132961;23;19984;-76
2021/12/19 08:45:32;;;;;;;;;;;0.70;83.90;;;;;;6102462;23;19941;-76
2021/12/19 08:47:59;;;;;;;;;;;0.80;83.40;;;;;;6101198;23;19971;-76
2021/12/19 08:50:26;;;;;;;;;;;0.80;83.90;;;;;;6123747;23;19921;-77
2021/12/19 08:52:53;;;;;;;;;;;0.90;83.60;;;;;;6100567;23;19917;-77
2021/12/19 08:55:20;;;;;;;;;;;0.90;83.40;;;;;;6101110;23;19921;-77
2021/12/19 08:57:47;;;;;;;;;;;1.00;83.90;;;;;;6100351;23;20306;-77
2021/12/19 09:00:16;;;;;;;;;;;1.10;84.10;;;;;;6103864;23;19924;-79
2021/12/19 09:02:45;;;;;;;;;;;1.20;84.50;;;;;;6101447;23;19996;-78
2021/12/19 09:05:13;;;;;;;;;;;1.30;84.60;;;;;;6100068;23;19917;-76
2021/12/19 09:07:40;;;;;;;;;;;1.40;84.30;;;;;;6100565;23;19921;-77
2021/12/19 09:10:07;;;;;;;;;;;1.40;84.40;;;;;;6098294;23;19928;-80
2021/12/19 09:12:34;;;;;;;;;;;1.40;85.20;;;;;;6100918;23;19948;-76
2021/12/19 09:15:06;;;;;;;;;;;1.50;84.80;;;;;;6102239;23;20008;-80
2021/12/19 09:17:33;;;;;;;;;;;1.40;85.50;;;;;;6100718;23;19921;-80
2021/12/19 09:19:59;;;;;;;;;;;1.50;85.20;;;;;;6100738;23;19920;-76
2021/12/19 09:22:29;;;;;;;;;;;1.50;85.40;;;;;;6101261;23;19920;-77
2021/12/19 09:25:15;;;;;;;;;;;1.60;85.10;;;;;;6103910;23;19988;-77
2021/12/19 09:27:42;;;;;;;;;;;1.80;85.20;;;;;;6100244;23;20258;-80
2021/12/19 09:30:09;;;;;;;;;;;1.90;84.70;;;;;;6100917;23;19923;-77
2021/12/19 09:32:36;;;;;;;;;;;1.90;85.40;;;;;;6099766;23;19949;-80
2021/12/19 09:35:05;;;;;;;;;;;1.90;85.00;;;;;;6107956;23;20448;-78
2021/12/19 09:37:35;;;;;;;;;;;1.90;85.40;;;;;;6103851;23;19921;-80
2021/12/19 09:40:06;;;;;;;;;;;2.00;85.50;;;;;;6099122;23;19928;-77
2021/12/19 09:42:35;;;;;;;;;;;2.10;86.00;;;;;;6112016;23;19921;-78
2021/12/19 09:45:03;;;;;;;;;;;2.10;85.80;;;;;;6126146;23;20343;-79
2021/12/19 09:47:30;;;;;;;;;;;2.20;86.10;;;;;;6100010;23;19952;-80
2021/12/19 09:50:00;;;;;;;;;;;2.30;85.70;;;;;;6125923;23;19989;-79
2021/12/19 09:52:28;;;;;;;;;;;2.50;85.50;;;;;;6102418;23;19924;-81
2021/12/19 09:54:55;;;;;;;;;;;2.70;85.30;;;;;;6099861;23;19921;-80
2021/12/19 09:57:22;;;;;;;;;;;2.80;84.90;;;;;;6103547;23;19929;-79
2021/12/19 09:59:49;;;;;;;;;;;2.80;84.80;;;;;;6102724;23;20334;-78
2021/12/19 10:02:16;;;;;;;;;;;2.90;84.50;;;;;;6105614;23;19971;-80
2021/12/19 10:04:45;;;;;;;;;;;3.00;84.30;;;;;;6105003;23;19955;-80
2021/12/19 10:07:11;;;;;;;;;;;3.20;84.30;;;;;;6105962;23;19921;-80
2021/12/19 10:09:51;;;;;;;;;;;3.40;84.40;;;;;;6100639;23;19952;-80
2021/12/19 10:15:11;;;;;;;;;;;3.60;83.10;;;;;;6126614;23;20422;-81
2021/12/19 10:17:39;;;;;;;;;;;3.70;82.50;;;;;;6102551;23;19948;-78
2021/12/19 10:20:07;;;;;;;;;;;3.90;81.50;;;;;;6102245;23;20306;-78
2021/12/19 10:22:38;;;;;;;;;;;3.90;80.60;;;;;;6107129;23;19921;-81
2021/12/19 10:25:07;;;;;;;;;;;4.10;81.50;;;;;;6105115;23;19924;-80
2021/12/19 10:27:38;;;;;;;;;;;4.20;80.40;;;;;;6110855;23;19921;-80
2021/12/19 10:30:16;;;;;;;;;;;4.30;81.10;;;;;;6099210;23;20339;-81
2021/12/19 10:32:53;;;;;;;;;;;4.50;81.00;;;;;;6106113;23;20394;-81
2021/12/19 10:35:24;;;;;;;;;;;4.60;80.40;;;;;;6099898;23;19992;-81
2021/12/19 10:37:51;;;;;;;;;;;4.80;80.20;;;;;;6105257;23;19925;-79
2021/12/19 10:40:19;;;;;;;;;;;4.90;79.50;;;;;;6104885;23;19932;-76
2021/12/19 10:42:47;;;;;;;;;;;5.10;79.40;;;;;;6132336;23;20351;-80
2021/12/19 10:45:29;;;;;;;;;;;5.20;77.50;;;;;;6107038;23;19928;-79
2021/12/19 10:48:16;;;;;;;;;;;5.30;76.30;;;;;;6108789;23;19921;-79
2021/12/19 10:50:52;;;;;;;;;;;5.30;75.50;;;;;;6109117;23;19920;-79
2021/12/19 10:53:23;;;;;;;;;;;5.50;75.40;;;;;;6104280;23;19924;-80
2021/12/19 10:55:50;;;;;;;;;;;5.60;75.60;;;;;;6102435;23;19925;-76
2021/12/19 10:58:18;;;;;;;;;;;5.80;75.10;;;;;;6130175;23;19999;-80
2021/12/19 11:01:04;;;;;;;;;;;6.00;74.50;;;;;;6104792;23;19925;-80
2021/12/19 16:31:44;;;;;;;;;;;4.70;68.70;;;;;;6099992;23;19992;-79
2021/12/19 16:34:11;;;;;;;;;;;4.60;69.30;;;;;;6108012;23;19905;-80
2021/12/19 16:36:37;;;;;;;;;;;4.50;69.80;;;;;;6103617;23;19920;-80
2021/12/19 16:39:06;;;;;;;;;;;4.40;70.10;;;;;;6099596;23;19932;-79
2021/12/19 16:41:44;;;;;;;;;;;4.40;70.40;;;;;;6097516;23;19921;-79
2021/12/19 16:44:11;;;;;;;;;;;4.30;70.60;;;;;;6097252;23;19925;-81
2021/12/19 16:46:39;;;;;;;;;;;4.30;70.80;;;;;;6100384;23;19945;-79
2021/12/19 16:49:07;;;;;;;;;;;4.20;71.00;;;;;;6105107;23;19921;-80
2021/12/19 16:51:34;;;;;;;;;;;4.10;71.10;;;;;;6115157;23;19909;-81
2021/12/19 16:54:00;;;;;;;;;;;4.00;71.20;;;;;;6105581;23;19924;-80
2021/12/19 17:26:09;;;;;;;;;;;2.80;74.50;;;;;;6095821;23;19933;-79
2021/12/19 17:28:36;;;;;;;;;;;2.70;74.80;;;;;;6077003;23;20347;-79
2021/12/19 17:31:03;;;;;;;;;;;2.70;74.90;;;;;;6099029;23;19921;-78
2021/12/19 17:33:30;;;;;;;;;;;2.60;74.90;;;;;;6070692;23;19929;-80
2021/12/19 17:35:57;;;;;;;;;;;2.50;75.70;;;;;;6081614;23;19926;-79
2021/12/19 17:38:24;;;;;;;;;;;2.40;75.80;;;;;;6076920;23;19921;-79
2021/12/19 17:40:56;;;;;;;;;;;2.30;75.80;;;;;;6075890;23;20007;-79
2021/12/19 17:43:24;;;;;;;;;;;2.20;77.30;;;;;;6082274;23;20351;-79
2021/12/19 17:45:52;;;;;;;;;;;2.10;76.50;;;;;;6070044;23;19922;-79
2021/12/19 17:48:19;;;;;;;;;;;2.10;76.70;;;;;;6082110;23;19925;-78
2021/12/19 17:50:47;;;;;;;;;;;2.00;76.80;;;;;;6082119;23;20279;-79
2021/12/19 17:53:14;;;;;;;;;;;2.00;77.30;;;;;;6082117;23;20441;-79
2021/12/19 17:55:42;;;;;;;;;;;1.90;78.00;;;;;;6074200;23;19921;-79
2021/12/19 17:58:08;;;;;;;;;;;1.90;79.30;;;;;;6085722;23;19921;-78
2021/12/19 18:00:35;;;;;;;;;;;1.80;77.90;;;;;;6078531;23;19925;-79
2021/12/19 18:03:03;;;;;;;;;;;1.80;77.90;;;;;;6106544;23;19921;-79
2021/12/19 18:05:31;;;;;;;;;;;1.70;78.70;;;;;;6081896;23;19909;-79
2021/12/19 18:07:58;;;;;;;;;;;1.70;78.90;;;;;;6080602;23;19952;-78
2021/12/19 18:10:25;;;;;;;;;;;1.70;79.90;;;;;;6094824;23;19973;-79
2021/12/19 18:12:51;;;;;;;;;;;1.60;79.10;;;;;;6078810;23;19928;-79
2021/12/19 18:15:19;;;;;;;;;;;1.60;79.10;;;;;;6070233;23;19925;-78
2021/12/19 18:17:50;;;;;;;;;;;1.50;79.10;;;;;;6076167;23;20357;-79
2021/12/19 18:20:18;;;;;;;;;;;1.50;80.10;;;;;;6070029;23;19981;-79
2021/12/19 18:22:45;;;;;;;;;;;1.50;79.60;;;;;;6082101;23;19925;-80
2021/12/19 18:25:13;;;;;;;;;;;1.40;79.60;;;;;;6081228;23;19921;-78
2021/12/19 18:27:40;;;;;;;;;;;1.40;79.70;;;;;;6106492;23;19940;-79
2021/12/19 18:30:07;;;;;;;;;;;1.40;79.90;;;;;;6109265;23;19937;-80
2021/12/19 18:32:34;;;;;;;;;;;1.20;79.70;;;;;;6104281;23;19920;-78
2021/12/19 18:35:02;;;;;;;;;;;1.20;80.00;;;;;;6098353;23;20345;-78
2021/12/19 18:37:33;;;;;;;;;;;1.20;79.40;;;;;;6136287;23;19929;-78
2021/12/19 18:40:05;;;;;;;;;;;1.10;80.50;;;;;;6110575;23;19932;-79
2021/12/19 18:55:56;;;;;;;;;;;0.90;82.90;;;;;;6130238;23;20066;-79
2021/12/19 18:58:29;;;;;;;;;;;0.70;81.80;;;;;;6108545;23;19905;-80
2021/12/19 19:01:02;;;;;;;;;;;0.60;81.30;;;;;;6137603;23;20342;-79
2021/12/19 19:06:11;;;;;;;;;;;0.40;82.50;;;;;;6131459;23;19921;-79
2021/12/19 19:08:38;;;;;;;;;;;0.30;82.20;;;;;;6104366;23;20362;-80
2021/12/19 19:11:06;;;;;;;;;;;0.20;82.60;;;;;;6100591;23;20294;-79
2021/12/19 19:13:34;;;;;;;;;;;0.30;83.60;;;;;;6105672;23;19921;-79
2021/12/19 20:36:59;;;;;;;;;;;0.40;89.10;;;;;;6096504;23;19996;-78
2021/12/19 20:39:26;;;;;;;;;;;0.50;88.70;;;;;;6070834;23;19929;-78
2021/12/19 20:42:08;;;;;;;;;;;0.60;88.00;;;;;;6075522;23;19952;-76
2021/12/19 20:44:35;;;;;;;;;;;0.60;87.70;;;;;;6080708;23;19928;-76
2021/12/19 20:47:02;;;;;;;;;;;0.60;88.00;;;;;;6103987;23;19928;-79
2021/12/19 20:49:32;;;;;;;;;;;0.60;87.70;;;;;;6083220;23;19937;-79
2021/12/19 20:51:59;;;;;;;;;;;0.60;87.50;;;;;;6072304;23;19921;-79
2021/12/19 20:54:27;;;;;;;;;;;0.50;87.30;;;;;;6097690;23;20364;-78
2021/12/19 20:56:54;;;;;;;;;;;0.60;87.70;;;;;;6074405;23;19921;-79
2021/12/19 20:59:21;;;;;;;;;;;0.60;87.70;;;;;;6070870;23;19953;-80
2021/12/19 21:01:48;;;;;;;;;;;0.60;87.60;;;;;;6078424;23;19921;-78
2021/12/19 21:04:17;;;;;;;;;;;0.60;88.00;;;;;;6070296;23;19975;-79
2021/12/19 21:06:45;;;;;;;;;;;0.40;87.70;;;;;;6098812;23;19925;-79
2021/12/19 21:09:18;;;;;;;;;;;0.50;88.40;;;;;;6074533;23;20339;-78
2021/12/19 21:12:11;;;;;;;;;;;0.40;89.00;;;;;;6077696;23;19921;-79
2021/12/19 21:15:22;;;;;;;;;;;0.40;88.50;;;;;;5991352;23;19929;-78
2021/12/19 21:20:15;;;;;;;;;;;0.30;88.20;;;;;;6015481;23;19950;-77
2021/12/19 21:22:42;;;;;;;;;;;0.30;89.40;;;;;;5983903;23;20359;-78
2021/12/19 21:25:09;;;;;;;;;;;0.20;88.90;;;;;;5964891;23;19929;-79
2021/12/19 21:27:38;;;;;;;;;;;0.20;88.80;;;;;;5989233;23;19927;-76
2021/12/19 21:30:06;;;;;;;;;;;0.40;89.80;;;;;;5995723;23;19957;-79
2021/12/19 21:32:33;;;;;;;;;;;0.50;90.00;;;;;;6008784;23;19923;-78
2021/12/19 21:35:35;;;;;;;;;;;0.50;89.50;;;;;;5983995;23;19922;-79
2021/12/19 21:40:46;;;;;;;;;;;0.60;88.70;;;;;;6048987;23;19925;-76
2021/12/19 21:43:15;;;;;;;;;;;0.60;87.90;;;;;;6043157;23;19944;-79
2021/12/19 21:45:41;;;;;;;;;;;0.50;87.90;;;;;;6056494;23;19922;-79
2021/12/19 21:48:10;;;;;;;;;;;0.60;89.10;;;;;;6101809;23;19922;-76
2021/12/19 21:50:37;;;;;;;;;;;0.70;89.00;;;;;;6100005;23;20254;-79
2021/12/19 21:53:05;;;;;;;;;;;0.70;88.60;;;;;;6102135;23;19929;-76
2021/12/19 21:55:32;;;;;;;;;;;0.70;88.30;;;;;;6102304;23;19980;-79
2021/12/19 21:57:59;;;;;;;;;;;0.60;88.90;;;;;;6102018;23;19926;-79
2021/12/19 22:00:29;;;;;;;;;;;0.70;89.20;;;;;;6101144;23;19978;-76
2021/12/19 22:02:56;;;;;;;;;;;0.70;89.50;;;;;;6105944;23;19928;-78
2021/12/19 22:05:23;;;;;;;;;;;0.90;88.40;;;;;;6097065;23;19928;-76
2021/12/19 22:07:50;;;;;;;;;;;1.00;88.20;;;;;;6105942;23;19953;-78
2021/12/19 22:10:16;;;;;;;;;;;1.10;87.30;;;;;;6098423;23;19925;-76
2021/12/19 22:15:25;;;;;;;;;;;1.30;86.20;;;;;;6097716;23;19921;-79
2021/12/19 22:17:53;;;;;;;;;;;1.30;85.60;;;;;;6094171;23;19921;-78
2021/12/19 22:20:20;;;;;;;;;;;1.30;85.60;;;;;;6103971;23;19925;-78
2021/12/19 22:22:46;;;;;;;;;;;1.40;85.30;;;;;;6095548;23;19929;-76
2021/12/19 22:25:13;;;;;;;;;;;1.40;85.20;;;;;;6096559;23;19928;-76
2021/12/19 22:27:52;;;;;;;;;;;1.40;85.50;;;;;;6095808;23;19929;-79
2021/12/19 22:30:19;;;;;;;;;;;1.40;85.40;;;;;;6096761;23;19928;-80
2021/12/19 22:32:46;;;;;;;;;;;1.40;85.40;;;;;;6097892;23;19965;-77
2021/12/19 22:35:13;;;;;;;;;;;1.50;84.70;;;;;;6112004;23;19945;-80
2021/12/19 22:37:40;;;;;;;;;;;1.50;83.40;;;;;;6109053;23;19924;-79
2021/12/19 22:40:09;;;;;;;;;;;1.80;80.80;;;;;;6106081;23;19905;-78
2021/12/19 22:42:36;;;;;;;;;;;2.40;75.20;;;;;;6120617;23;19921;-79
2021/12/19 22:45:03;;;;;;;;;;;2.80;74.00;;;;;;6104910;23;19905;-78
2021/12/19 22:47:30;;;;;;;;;;;2.50;77.30;;;;;;6113849;23;19972;-80
2021/12/19 22:49:57;;;;;;;;;;;2.20;79.20;;;;;;6114195;23;19929;-80
2021/12/19 22:52:25;;;;;;;;;;;2.30;78.60;;;;;;6138600;23;19925;-79
2021/12/19 22:54:52;;;;;;;;;;;2.40;78.60;;;;;;6111243;23;19936;-78
2021/12/19 22:57:19;;;;;;;;;;;2.30;78.20;;;;;;6139231;23;19981;-76
2021/12/19 22:59:46;;;;;;;;;;;2.50;74.80;;;;;;6105736;23;20361;-79
2021/12/19 23:02:13;;;;;;;;;;;2.70;75.20;;;;;;6102865;23;19921;-79
2021/12/19 23:04:41;;;;;;;;;;;2.70;76.20;;;;;;6121989;23;19948;-80
2021/12/19 23:07:08;;;;;;;;;;;2.60;75.90;;;;;;6109286;23;19921;-76
2021/12/19 23:09:35;;;;;;;;;;;2.80;73.80;;;;;;6134382;23;19921;-78
2021/12/19 23:12:03;;;;;;;;;;;3.00;74.20;;;;;;6135294;23;19928;-78
2021/12/19 23:14:40;;;;;;;;;;;2.90;75.20;;;;;;6108327;23;19976;-79